หน้าหลัก
METAR-TAF:

METAR-TAF

ท่าอากาศยาน :

ท่าอากาศยานนานาชาติเวียนนา

เวียนนา, ออสเตรีย

ละติจูด: 48-07N, ลองจิจูด: 016-34E, ความสูง: 183 ม.

การสังเกตสภาพอากาศปัจจุบัน

รายงานได้ทำขึ้นเมื่อ 27 นาทีที่แล้ว ณ เวลา 03:20 UTC
ลม 6 นอตจากตะวันตกเฉียงเหนือ
อุณหภูมิ 20°C
ความชื้น 73%
ความกดอากาศ 1020 hPa
ทัศนวิสัย 10 กม. หรือมากกว่า
ไม่มีเมฆต่ำกว่า 1,500 ม. และไม่มีเมฆคิวมูโลนิมบัส

METAR: LOWW 190320Z 31006KT CAVOK 20/15 Q1020 NOSIG

เวลา: 05:47 (03:47 UTC)

การพยากรณ์

รายงานได้ทำขึ้นเมื่อ 1 ชั่วโมงและ 32 นาทีที่แล้ว ณ เวลา 02:15 UTC
การพยากรณ์มีผลตั้งแต่วันที่ 19 ณ เวลา 03 UTC จนถึงวันที่ 20 ณ เวลา 09 UTC
ลม 8 นอตจากเหนือ
ทัศนวิสัย 10 กม. หรือมากกว่า
ไม่มีเมฆต่ำกว่า 1,500 ม. และไม่มีเมฆคิวมูโลนิมบัส
กำลังกลายเป็น
ตั้งแต่วันที่ 20 ณ เวลา 02 UTC จนถึงวันที่ 20 ณ เวลา 04 UTC
ลม 4 นอตจากตะวันตก
ชั่วคราว
ตั้งแต่วันที่ 20 ณ เวลา 05 UTC จนถึงวันที่ 20 ณ เวลา 09 UTC
ฝนโปรยปรายเล็กน้อย,

TAF: LOWW 190215Z 1903/2009 36008KT CAVOK TX31/1914Z TN18/1903Z BECMG 2002/2004 28004KT TEMPO 2005/2009 -SHRA

สังเกตการณ์สภาพอากาศและพยากรณ์อากาศของสนามบินมากกว่า 4000 แห่ง (รายงาน METAR และ TAF).

สถานีที่ดูได้จะแสดงไว้ด้วยจุดสีเหลืองและสีแดงบนแผนที่.

เลื่อนเมาส์ไปเหนือจุดเพื่อดูชื่อสถานี.

แล้วคลิกเพื่อดูสังเกตการณ์และการพยากรณ์สภาพอากาศ.

ในการเปลี่ยนแผนที่: คลิกที่ปุ่มสีเขียวที่มีกากบาทสีดำเพื่อซูมเข้า; ที่ปุ่มสีเขียวที่มีขีดเพื่อซูมออก; หรือที่ลูกศรสีเขียวเพื่อไปยังแผนที่ที่อยู่ติดกัน.


METAR-TAF: